Observation data for Haskell on 07/17/2019      Previous  Date  Next       Current Mesonet Observations  Soil Data  Daily Summary Page  Observations in Plain Language
KHA1 170500Z 14007KT 29/19 A2995 RMK A01 T02920193  RH  059%=      5-min Rain = 0
KHA1 170505Z 14006KT 29/19 A2995 RMK A01 T02910193  RH  059%=      5-min Rain = 0
KHA1 170510Z 14007KT 29/19 A2995 RMK A01 T02900192  RH  059%=      5-min Rain = 0
KHA1 170515Z 14007KT 29/19 A2995 RMK A01 T02900192  RH  059%=      5-min Rain = 0
KHA1 170520Z 14006KT 29/19 A2995 RMK A01 T02900191  RH  058%=      5-min Rain = 0
KHA1 170525Z 14007KT 29/19 A2995 RMK A01 T02880191  RH  059%=      5-min Rain = 0
KHA1 170530Z 15007G12KT 29/19 A2995 RMK A01 T02880190  RH  059%=      5-min Rain = 0
KHA1 170535Z 15006KT 29/19 A2995 RMK A01 T02860190  RH  059%=      5-min Rain = 0
KHA1 170540Z 15007KT 29/19 A2995 RMK A01 T02850190  RH  059%=      5-min Rain = 0
KHA1 170545Z 15006KT 29/19 A2995 RMK A01 T02850189  RH  059%=      5-min Rain = 0
KHA1 170550Z 15006KT 28/19 A2995 RMK A01 T02840189  RH  059%=      5-min Rain = 0
KHA1 170555Z 16006KT 28/19 A2995 RMK A01 T02840188  RH  059%=      5-min Rain = 0
KHA1 170600Z 16006KT 28/19 A2995 RMK A01 T02830188  RH  060%=      5-min Rain = 0
KHA1 170605Z 16006KT 28/19 A2995 RMK A01 T02820187  RH  060%=      5-min Rain = 0
KHA1 170610Z 16007KT 28/19 A2995 RMK A01 T02820187  RH  059%=      5-min Rain = 0
KHA1 170615Z 16007G12KT 28/19 A2995 RMK A01 T02820186  RH  059%=      5-min Rain = 0
KHA1 170620Z 17006KT 28/19 A2995 RMK A01 T02810186  RH  059%=      5-min Rain = 0
KHA1 170625Z 17006KT 28/19 A2995 RMK A01 T02810185  RH  059%=      5-min Rain = 0
KHA1 170630Z 17006KT 28/19 A2995 RMK A01 T02800185  RH  060%=      5-min Rain = 0
KHA1 170635Z 17006KT 28/19 A2995 RMK A01 T02790185  RH  060%=      5-min Rain = 0
KHA1 170640Z 17007KT 28/18 A2995 RMK A01 T02780184  RH  060%=      5-min Rain = 0
KHA1 170645Z 17006KT 28/18 A2995 RMK A01 T02770184  RH  060%=      5-min Rain = 0
KHA1 170650Z 17007KT 28/18 A2995 RMK A01 T02770183  RH  060%=      5-min Rain = 0
KHA1 170655Z 17007KT 28/18 A2995 RMK A01 T02770182  RH  059%=      5-min Rain = 0
KHA1 170700Z 17007KT 28/18 A2995 RMK A01 T02770182  RH  059%=      5-min Rain = 0
KHA1 170705Z 17007KT 28/18 A2995 RMK A01 T02770182  RH  059%=      5-min Rain = 0
KHA1 170710Z 17007KT 28/18 A2995 RMK A01 T02760182  RH  060%=      5-min Rain = 0
KHA1 170715Z 18007KT 28/18 A2995 RMK A01 T02770182  RH  059%=      5-min Rain = 0
KHA1 170720Z 17007KT 28/18 A2995 RMK A01 T02760182  RH  060%=      5-min Rain = 0
KHA1 170725Z 17008KT 28/18 A2995 RMK A01 T02760182  RH  060%=      5-min Rain = 0
KHA1 170730Z 18007G12KT 28/18 A2995 RMK A01 T02760182  RH  060%=      5-min Rain = 0
KHA1 170735Z 18008KT 28/18 A2995 RMK A01 T02750182  RH  060%=      5-min Rain = 0
KHA1 170740Z 18008KT 28/18 A2995 RMK A01 T02750183  RH  060%=      5-min Rain = 0
KHA1 170745Z 18007KT 28/18 A2995 RMK A01 T02750183  RH  060%=      5-min Rain = 0
KHA1 170750Z 18007KT 27/18 A2995 RMK A01 T02740183  RH  061%=      5-min Rain = 0
KHA1 170755Z 17006KT 27/18 A2994 RMK A01 T02720184  RH  061%=      5-min Rain = 0
KHA1 170800Z 17007KT 27/18 A2994 RMK A01 T02720184  RH  062%=      5-min Rain = 0
KHA1 170805Z 17007KT 27/18 A2994 RMK A01 T02710184  RH  062%=      5-min Rain = 0
KHA1 170810Z 17006KT 27/18 A2994 RMK A01 T02710184  RH  062%=      5-min Rain = 0
KHA1 170815Z 18006KT 27/18 A2995 RMK A01 T02700184  RH  063%=      5-min Rain = 0
KHA1 170820Z 18006G11KT 27/19 A2995 RMK A01 T02700185  RH  063%=      5-min Rain = 0
KHA1 170825Z 17007KT 27/19 A2994 RMK A01 T02690185  RH  063%=      5-min Rain = 0
KHA1 170830Z 18007KT 27/19 A2994 RMK A01 T02690185  RH  064%=      5-min Rain = 0
KHA1 170835Z 18006KT 27/19 A2995 RMK A01 T02680185  RH  064%=      5-min Rain = 0
KHA1 170840Z 17006KT 27/19 A2995 RMK A01 T02660186  RH  065%=      5-min Rain = 0
KHA1 170845Z 18006KT 27/19 A2995 RMK A01 T02660186  RH  065%=      5-min Rain = 0
KHA1 170850Z 18006KT 27/19 A2995 RMK A01 T02650186  RH  065%=      5-min Rain = 0
KHA1 170855Z 18007KT 26/19 A2995 RMK A01 T02640187  RH  066%=      5-min Rain = 0
KHA1 170900Z 18006KT 26/19 A2995 RMK A01 T02640187  RH  066%=      5-min Rain = 0
KHA1 170905Z 18006KT 26/19 A2995 RMK A01 T02640187  RH  066%=      5-min Rain = 0
KHA1 170910Z 18007KT 26/19 A2995 RMK A01 T02630188  RH  067%=      5-min Rain = 0
KHA1 170915Z 18007KT 26/19 A2995 RMK A01 T02630188  RH  067%=      5-min Rain = 0
KHA1 170920Z 18008KT 26/19 A2995 RMK A01 T02620188  RH  067%=      5-min Rain = 0
KHA1 170925Z 18007KT 26/19 A2995 RMK A01 T02630189  RH  067%=      5-min Rain = 0
KHA1 170930Z 17008KT 26/19 A2995 RMK A01 T02630189  RH  067%=      5-min Rain = 0
KHA1 170935Z 18008KT 26/19 A2995 RMK A01 T02630189  RH  068%=      5-min Rain = 0
KHA1 170940Z 17007G12KT 26/19 A2995 RMK A01 T02620190  RH  068%=      5-min Rain = 0
KHA1 170945Z 18007G12KT 26/19 A2995 RMK A01 T02620190  RH  068%=      5-min Rain = 0
KHA1 170950Z 18007KT 26/19 A2995 RMK A01 T02620191  RH  069%=      5-min Rain = 0
KHA1 170955Z 18007KT 26/19 A2995 RMK A01 T02610191  RH  069%=      5-min Rain = 0
KHA1 171000Z 18007KT 26/19 A2995 RMK A01 T02610191  RH  069%=      5-min Rain = 0
KHA1 171005Z 18008KT 26/19 A2995 RMK A01 T02610192  RH  069%=      5-min Rain = 0
KHA1 171010Z 18007KT 26/19 A2995 RMK A01 T02610193  RH  070%=      5-min Rain = 0
KHA1 171015Z 18008KT 26/19 A2995 RMK A01 T02610193  RH  070%=      5-min Rain = 0
KHA1 171020Z 18008KT 26/19 A2996 RMK A01 T02610194  RH  070%=      5-min Rain = 0
KHA1 171025Z 18008KT 26/20 A2996 RMK A01 T02610195  RH  071%=      5-min Rain = 0
KHA1 171030Z 18007KT 26/20 A2996 RMK A01 T02610195  RH  071%=      5-min Rain = 0
KHA1 171035Z 18008G13KT 26/20 A2996 RMK A01 T02610196  RH  071%=      5-min Rain = 0
KHA1 171040Z 18008KT 26/20 A2996 RMK A01 T02610197  RH  072%=      5-min Rain = 0
KHA1 171045Z 18008KT 26/20 A2996 RMK A01 T02620198  RH  072%=      5-min Rain = 0
KHA1 171050Z 18008G13KT 26/20 A2996 RMK A01 T02620198  RH  072%=      5-min Rain = 0
KHA1 171055Z 18008KT 26/20 A2996 RMK A01 T02620199  RH  072%=      5-min Rain = 0
KHA1 171100Z 18008G14KT 26/20 A2996 RMK A01 T02620199  RH  072%=      5-min Rain = 0
KHA1 171105Z 18008KT 26/20 A2996 RMK A01 T02620199  RH  073%=      5-min Rain = 0
KHA1 171110Z 18008G13KT 26/20 A2997 RMK A01 T02610200  RH  073%=      5-min Rain = 0
KHA1 171115Z 18008KT 26/20 A2997 RMK A01 T02610200  RH  073%=      5-min Rain = 0
KHA1 171120Z 18008KT 26/20 A2997 RMK A01 T02610200  RH  073%=      5-min Rain = 0
KHA1 171125Z 19008KT 26/20 A2997 RMK A01 T02610200  RH  073%=      5-min Rain = 0
KHA1 171130Z 18008G13KT 26/20 A2997 RMK A01 T02610201  RH  074%=      5-min Rain = 0
KHA1 171135Z 18007KT 26/20 A2997 RMK A01 T02600201  RH  074%=      5-min Rain = 0
KHA1 171140Z 19009KT 26/20 A2997 RMK A01 T02600201  RH  074%=      5-min Rain = 0
KHA1 171145Z 18009KT 26/20 A2997 RMK A01 T02600202  RH  074%=      5-min Rain = 0
KHA1 171150Z 19009KT 26/20 A2997 RMK A01 T02600202  RH  075%=      5-min Rain = 0
KHA1 171155Z 19010KT 26/20 A2998 RMK A01 T02600202  RH  075%=      5-min Rain = 0
KHA1 171200Z 19010KT 26/20 A2998 RMK A01 T02600202  RH  075%=      5-min Rain = 0
KHA1 171205Z 19009KT 26/20 A2998 RMK A01 T02600203  RH  075%=      5-min Rain = 0
KHA1 171210Z 19009G14KT 26/20 A2998 RMK A01 T02600203  RH  075%=      5-min Rain = 0
KHA1 171215Z 19009KT 26/20 A2998 RMK A01 T02610203  RH  075%=      5-min Rain = 0
KHA1 171220Z 19009KT 26/20 A2998 RMK A01 T02610204  RH  075%=      5-min Rain = 0
KHA1 171225Z 19009KT 26/20 A2998 RMK A01 T02610204  RH  075%=      5-min Rain = 0
KHA1 171230Z 19009KT 26/21 A2998 RMK A01 T02620205  RH  075%=      5-min Rain = 0
KHA1 171235Z 19010KT 26/21 A2998 RMK A01 T02630205  RH  075%=      5-min Rain = 0
KHA1 171240Z 19010KT 26/21 A2998 RMK A01 T02640205  RH  075%=      5-min Rain = 0
KHA1 171245Z 19009KT 27/21 A2998 RMK A01 T02650206  RH  074%=      5-min Rain = 0
KHA1 171250Z 19009KT 27/21 A2999 RMK A01 T02660206  RH  074%=      5-min Rain = 0
KHA1 171255Z 19009KT 27/21 A2999 RMK A01 T02680207  RH  073%=      5-min Rain = 0
KHA1 171300Z 19010KT 27/21 A2999 RMK A01 T02690207  RH  073%=      5-min Rain = 0
KHA1 171305Z 19010G15KT 27/21 A2999 RMK A01 T02700207  RH  073%=      5-min Rain = 0
KHA1 171310Z 19010G15KT 27/21 A2999 RMK A01 T02710207  RH  073%=      5-min Rain = 0
KHA1 171315Z 19011KT 27/21 A2999 RMK A01 T02720208  RH  072%=      5-min Rain = 0
KHA1 171320Z 19012KT 27/21 A2999 RMK A01 T02730208  RH  072%=      5-min Rain = 0
KHA1 171325Z 19014KT 27/21 A2999 RMK A01 T02730208  RH  072%=      5-min Rain = 0
KHA1 171330Z 19013G18KT 28/21 A2999 RMK A01 T02750208  RH  071%=      5-min Rain = 0
KHA1 171335Z 19011G16KT 28/21 A2999 RMK A01 T02780209  RH  070%=      5-min Rain = 0
KHA1 171340Z 19015G20KT 28/21 A2999 RMK A01 T02780208  RH  070%=      5-min Rain = 0
KHA1 171345Z 20015KT 28/21 A2999 RMK A01 T02790208  RH  069%=      5-min Rain = 0
KHA1 171350Z 20014KT 28/21 A2999 RMK A01 T02820209  RH  069%=      5-min Rain = 0
KHA1 171355Z 20013G18KT 28/21 A30 RMK A01 T02840209  RH  068%=      5-min Rain = 0
KHA1 171400Z 19014KT 29/21 A30 RMK A01 T02860209  RH  067%=      5-min Rain = 0
KHA1 171405Z 20013KT 29/21 A30 RMK A01 T02860208  RH  067%=      5-min Rain = 0
KHA1 171410Z 19013G18KT 29/21 A30 RMK A01 T02880209  RH  066%=      5-min Rain = 0
KHA1 171415Z 19015G20KT 29/21 A30 RMK A01 T02880207  RH  066%=      5-min Rain = 0
KHA1 171420Z 20015G21KT 29/21 A30 RMK A01 T02880206  RH  065%=      5-min Rain = 0
KHA1 171425Z 20016KT 29/21 A30 RMK A01 T02910205  RH  064%=      5-min Rain = 0
KHA1 171430Z 20016G21KT 29/21 A30 RMK A01 T02920205  RH  063%=      5-min Rain = 0
KHA1 171435Z 20016G21KT 29/20 A30 RMK A01 T02930204  RH  062%=      5-min Rain = 0
KHA1 171440Z 20015KT 29/21 A30 RMK A01 T02940205  RH  062%=      5-min Rain = 0
KHA1 171445Z 20013G21KT 30/21 A30 RMK A01 T02970206  RH  062%=      5-min Rain = 0
KHA1 171450Z 19015G20KT 30/20 A30 RMK A01 T02960204  RH  061%=      5-min Rain = 0
KHA1 171455Z 19014G19KT 30/20 A30 RMK A01 T02960204  RH  061%=      5-min Rain = 0
KHA1 171500Z 19014G19KT 30/20 A30 RMK A01 T03000204  RH  060%=      5-min Rain = 0
KHA1 171505Z 19015G20KT 30/20 A30 RMK A01 T03000204  RH  060%=      5-min Rain = 0
KHA1 171510Z 19016G21KT 30/20 A30 RMK A01 T03020201  RH  058%=      5-min Rain = 0
KHA1 171515Z 19013KT 30/21 A30 RMK A01 T03040205  RH  059%=      5-min Rain = 0
KHA1 171520Z 19014KT 31/20 A30 RMK A01 T03050203  RH  058%=      5-min Rain = 0
KHA1 171525Z 19014G19KT 31/20 A30 RMK A01 T03090202  RH  056%=      5-min Rain = 0
KHA1 171530Z 20015G20KT 31/20 A30 RMK A01 T03100199  RH  055%=      5-min Rain = 0
KHA1 171535Z 21014G20KT 31/20 A30 RMK A01 T03120199  RH  054%=      5-min Rain = 0
KHA1 171540Z 21014G20KT 32/20 A30 RMK A01 T03160198  RH  052%=      5-min Rain = 0
KHA1 171545Z 21015G20KT 31/20 A30 RMK A01 T03140197  RH  053%=      5-min Rain = 0
KHA1 171550Z 21013KT 32/20 A30 RMK A01 T03170199  RH  052%=      5-min Rain = 0
KHA1 171555Z 20012KT 32/20 A30 RMK A01 T03180198  RH  052%=      5-min Rain = 0
KHA1 171600Z 20013KT 32/20 A3001 RMK A01 T03190197  RH  051%=      5-min Rain = 0
KHA1 171605Z 20012KT 32/20 A30 RMK A01 T03230195  RH  050%=      5-min Rain = 0
KHA1 171610Z 19011G17KT 32/20 A3001 RMK A01 T03240196  RH  050%=      5-min Rain = 0
KHA1 171615Z 20013G18KT 32/19 A3001 RMK A01 T03240192  RH  049%=      5-min Rain = 0
KHA1 171620Z 22013G19KT 33/19 A3001 RMK A01 T03250193  RH  048%=      5-min Rain = 0
KHA1 171625Z 20013G18KT 33/19 A3001 RMK A01 T03270191  RH  047%=      5-min Rain = 0
KHA1 171630Z 20013G19KT 33/19 A3001 RMK A01 T03250190  RH  047%=      5-min Rain = 0
KHA1 171635Z 20013G18KT 33/19 A30 RMK A01 T03310191  RH  046%=      5-min Rain = 0
KHA1 171640Z 19013G19KT 33/19 A30 RMK A01 T03310190  RH  046%=      5-min Rain = 0
KHA1 171645Z 19012G18KT 33/19 A30 RMK A01 T03270188  RH  046%=      5-min Rain = 0
KHA1 171650Z 20011KT 33/19 A3001 RMK A01 T03340189  RH  045%=      5-min Rain = 0
KHA1 171655Z 20012G18KT 34/18 A30 RMK A01 T03360184  RH  043%=      5-min Rain = 0
KHA1 171700Z 20013KT 34/18 A30 RMK A01 T03350181  RH  042%=      5-min Rain = 0
KHA1 171705Z 19012KT 34/18 A30 RMK A01 T03380180  RH  041%=      5-min Rain = 0
KHA1 171710Z 19011G18KT 34/18 A30 RMK A01 T03390181  RH  041%=      5-min Rain = 0
KHA1 171715Z 19012G17KT 34/18 A30 RMK A01 T03380177  RH  041%=      5-min Rain = 0
KHA1 171720Z 20012KT 34/18 A2999 RMK A01 T03420180  RH  040%=      5-min Rain = 0
KHA1 171725Z 20013G22KT 34/18 A2999 RMK A01 T03420179  RH  040%=      5-min Rain = 0
KHA1 171730Z 19012KT 34/18 A2999 RMK A01 T03420182  RH  041%=      5-min Rain = 0
KHA1 171735Z 18012G17KT 34/18 A2999 RMK A01 T03410181  RH  041%=      5-min Rain = 0
KHA1 171740Z 17011KT 34/19 A2999 RMK A01 T03370186  RH  043%=      5-min Rain = 0
KHA1 171745Z 18011KT 34/18 A2999 RMK A01 T03370184  RH  043%=      5-min Rain = 0
KHA1 171750Z 17011G16KT 34/19 A2999 RMK A01 T03420189  RH  043%=      5-min Rain = 0
KHA1 171755Z 17011G17KT 34/19 A2999 RMK A01 T03410187  RH  042%=      5-min Rain = 0
KHA1 171800Z 18010G15KT 34/19 A2999 RMK A01 T03420185  RH  042%=      5-min Rain = 0
KHA1 171805Z 17010G16KT 34/18 A2999 RMK A01 T03420182  RH  041%=      5-min Rain = 0
KHA1 171810Z 19011G17KT 35/18 A2999 RMK A01 T03470177  RH  038%=      5-min Rain = 0
KHA1 171815Z 19012G20KT 35/18 A2999 RMK A01 T03520181  RH  038%=      5-min Rain = 0
KHA1 171820Z 17012G17KT 34/18 A2999 RMK A01 T03420181  RH  041%=      5-min Rain = 0
KHA1 171825Z 16010G16KT 34/19 A2999 RMK A01 T03420186  RH  042%=      5-min Rain = 0
KHA1 171830Z 17010G15KT 35/19 A2999 RMK A01 T03460187  RH  041%=      5-min Rain = 0
KHA1 171835Z 16012G17KT 34/19 A2999 RMK A01 T03430186  RH  042%=      5-min Rain = 0
KHA1 171840Z 16010G17KT 35/19 A2998 RMK A01 T03460187  RH  041%=      5-min Rain = 0
KHA1 171845Z 17010KT 35/19 A2998 RMK A01 T03450185  RH  041%=      5-min Rain = 0
KHA1 171850Z 16011KT 34/19 A2998 RMK A01 T03440189  RH  042%=      5-min Rain = 0
KHA1 171855Z 18012G19KT 35/18 A2998 RMK A01 T03490183  RH  040%=      5-min Rain = 0
KHA1 171900Z 17013G19KT 35/18 A2998 RMK A01 T03470182  RH  040%=      5-min Rain = 0
KHA1 171905Z 18013KT 35/18 A2997 RMK A01 T03480184  RH  040%=      5-min Rain = 0
KHA1 171910Z 19014G19KT 35/18 A2997 RMK A01 T03510180  RH  038%=      5-min Rain = 0
KHA1 171915Z 19012G18KT 35/18 A2997 RMK A01 T03510177  RH  038%=      5-min Rain = 0
KHA1 171920Z 17011G18KT 36/18 A2997 RMK A01 T03560180  RH  037%=      5-min Rain = 0
KHA1 171925Z 17012G17KT 35/18 A2996 RMK A01 T03490178  RH  038%=      5-min Rain = 0
KHA1 171930Z 18012KT 35/17 A2996 RMK A01 T03500174  RH  037%=      5-min Rain = 0
KHA1 171935Z 17012G18KT 35/18 A2996 RMK A01 T03500179  RH  038%=      5-min Rain = 0
KHA1 171940Z 18014G19KT 35/17 A2996 RMK A01 T03520170  RH  036%=      5-min Rain = 0
KHA1 171945Z 18014G19KT 36/17 A2996 RMK A01 T03560171  RH  035%=      5-min Rain = 0
KHA1 171950Z 19013KT 36/17 A2995 RMK A01 T03570173  RH  035%=      5-min Rain = 0
KHA1 171955Z 19013G18KT 36/17 A2995 RMK A01 T03610170  RH  034%=      5-min Rain = 0
KHA1 172000Z 17012G18KT 36/17 A2995 RMK A01 T03550165  RH  034%=      5-min Rain = 0
KHA1 172005Z 17013G19KT 35/17 A2995 RMK A01 T03500166  RH  035%=      5-min Rain = 0
KHA1 172010Z 17010G20KT 35/17 A2995 RMK A01 T03460171  RH  037%=      5-min Rain = 0
KHA1 172015Z 17013G19KT 35/17 A2995 RMK A01 T03460170  RH  037%=      5-min Rain = 0
KHA1 172020Z 17012G20KT 35/17 A2995 RMK A01 T03460169  RH  037%=      5-min Rain = 0
KHA1 172025Z 19013G19KT 36/17 A2995 RMK A01 T03560167  RH  034%=      5-min Rain = 0
KHA1 172030Z 18010G16KT 36/18 A2995 RMK A01 T03570178  RH  037%=      5-min Rain = 0
KHA1 172035Z 16012KT 35/18 A2994 RMK A01 T03490181  RH  039%=      5-min Rain = 0
KHA1 172040Z 17013G21KT 36/18 A2994 RMK A01 T03550178  RH  037%=      5-min Rain = 0
KHA1 172045Z 18015KT 35/17 A2994 RMK A01 T03520174  RH  037%=      5-min Rain = 0
KHA1 172050Z 17013G20KT 35/18 A2994 RMK A01 T03530177  RH  037%=      5-min Rain = 0
KHA1 172055Z 18015G22KT 35/18 A2993 RMK A01 T03540177  RH  037%=      5-min Rain = 0
KHA1 172100Z 19014G21KT 36/18 A2993 RMK A01 T03620175  RH  035%=      5-min Rain = 0
KHA1 172105Z 17014G21KT 36/18 A2993 RMK A01 T03600178  RH  036%=      5-min Rain = 0
KHA1 172110Z 16012G18KT 36/18 A2993 RMK A01 T03560179  RH  037%=      5-min Rain = 0
KHA1 172115Z 17009G15KT 35/18 A2993 RMK A01 T03520180  RH  038%=      5-min Rain = 0
KHA1 172120Z 19015G20KT 36/17 A2992 RMK A01 T03610171  RH  034%=      5-min Rain = 0
KHA1 172125Z 17013G18KT 36/18 A2992 RMK A01 T03590179  RH  037%=      5-min Rain = 0
KHA1 172130Z 18014G20KT 36/18 A2992 RMK A01 T03560176  RH  036%=      5-min Rain = 0
KHA1 172135Z 19014G19KT 36/18 A2992 RMK A01 T03610175  RH  035%=      5-min Rain = 0
KHA1 172140Z 17014G20KT 36/18 A2992 RMK A01 T03560178  RH  037%=      5-min Rain = 0
KHA1 172145Z 17011G16KT 36/18 A2991 RMK A01 T03570179  RH  037%=      5-min Rain = 0
KHA1 172150Z 16012G20KT 36/18 A2991 RMK A01 T03550177  RH  037%=      5-min Rain = 0
KHA1 172155Z 17012G18KT 36/17 A2991 RMK A01 T03550174  RH  036%=      5-min Rain = 0
KHA1 172200Z 18012G20KT 36/17 A2991 RMK A01 T03600171  RH  035%=      5-min Rain = 0
KHA1 172205Z 17012KT 36/18 A2991 RMK A01 T03570175  RH  036%=      5-min Rain = 0
KHA1 172210Z 16011G19KT 36/18 A2991 RMK A01 T03550177  RH  037%=      5-min Rain = 0
KHA1 172215Z 16012G20KT 35/17 A2991 RMK A01 T03540174  RH  036%=      5-min Rain = 0
KHA1 172220Z 17012G18KT 36/17 A2991 RMK A01 T03560169  RH  035%=      5-min Rain = 0
KHA1 172225Z 17012G18KT 36/17 A2991 RMK A01 T03590169  RH  034%=      5-min Rain = 0
KHA1 172230Z 15012G20KT 35/17 A2991 RMK A01 T03530171  RH  036%=      5-min Rain = 0
KHA1 172235Z 16011G17KT 35/17 A2991 RMK A01 T03510172  RH  036%=      5-min Rain = 0
KHA1 172240Z 16009G15KT 35/18 A2991 RMK A01 T03540177  RH  037%=      5-min Rain = 0
KHA1 172245Z 16012G20KT 36/17 A2991 RMK A01 T03560174  RH  036%=      5-min Rain = 0
KHA1 172250Z 16011G17KT 35/17 A299 RMK A01 T03520174  RH  037%=      5-min Rain = 0
KHA1 172255Z 15013G18KT 35/18 A299 RMK A01 T03510175  RH  037%=      5-min Rain = 0
KHA1 172300Z 15012KT 35/17 A299 RMK A01 T03490173  RH  037%=      5-min Rain = 0
KHA1 172305Z 14012G17KT 35/18 A299 RMK A01 T03490176  RH  038%=      5-min Rain = 0
KHA1 172310Z 17012G19KT 36/17 A299 RMK A01 T03580174  RH  036%=      5-min Rain = 0
KHA1 172315Z 15012G17KT 35/18 A299 RMK A01 T03510177  RH  038%=      5-min Rain = 0
KHA1 172320Z 16011G17KT 35/18 A2989 RMK A01 T03510177  RH  038%=      5-min Rain = 0
KHA1 172325Z 17013G19KT 35/17 A2989 RMK A01 T03530174  RH  037%=      5-min Rain = 0
KHA1 172330Z 16012G17KT 35/18 A2989 RMK A01 T03520176  RH  037%=      5-min Rain = 0
KHA1 172335Z 16011G19KT 35/18 A2989 RMK A01 T03500177  RH  038%=      5-min Rain = 0
KHA1 172340Z 15012G19KT 35/17 A2988 RMK A01 T03490174  RH  038%=      5-min Rain = 0
KHA1 172345Z 16013G23KT 35/17 A2989 RMK A01 T03480173  RH  037%=      5-min Rain = 0
KHA1 172350Z 17009G14KT 35/17 A2989 RMK A01 T03530174  RH  037%=      5-min Rain = 0
KHA1 172355Z 16010G16KT 35/18 A2989 RMK A01 T03540175  RH  036%=      5-min Rain = 0
KHA1 180000Z 16012G17KT 35/17 A2989 RMK A01 T03480169  RH  036%=      5-min Rain = 0
KHA1 180005Z 16012G17KT 35/17 A2989 RMK A01 T03480169  RH  036%=      5-min Rain = 0
KHA1 180010Z 17011G17KT 35/17 A2988 RMK A01 T03480167  RH  036%=      5-min Rain = 0
KHA1 180015Z 17010KT 35/17 A2989 RMK A01 T03500171  RH  036%=      5-min Rain = 0
KHA1 180020Z 17010G15KT 35/17 A2989 RMK A01 T03480174  RH  038%=      5-min Rain = 0
KHA1 180025Z 16012G18KT 35/18 A2988 RMK A01 T03450175  RH  038%=      5-min Rain = 0
KHA1 180030Z 16012G17KT 34/18 A2989 RMK A01 T03420177  RH  039%=      5-min Rain = 0
KHA1 180035Z 16010G17KT 34/18 A2989 RMK A01 T03410178  RH  040%=      5-min Rain = 0
KHA1 180040Z 16011G17KT 34/18 A2988 RMK A01 T03400178  RH  040%=      5-min Rain = 0
KHA1 180045Z 16011KT 34/18 A2988 RMK A01 T03400176  RH  040%=      5-min Rain = 0
KHA1 180050Z 15011G16KT 34/18 A2988 RMK A01 T03380177  RH  040%=      5-min Rain = 0
KHA1 180055Z 16011G17KT 34/18 A2988 RMK A01 T03370176  RH  040%=      5-min Rain = 0
KHA1 180100Z 16011G18KT 34/17 A2988 RMK A01 T03360173  RH  040%=      5-min Rain = 0
KHA1 180105Z 15011KT 34/17 A2988 RMK A01 T03350173  RH  040%=      5-min Rain = 0
KHA1 180110Z 15010KT 33/17 A2989 RMK A01 T03330174  RH  041%=      5-min Rain = 0
KHA1 180115Z 15010G15KT 33/18 A2989 RMK A01 T03320175  RH  041%=      5-min Rain = 0
KHA1 180120Z 15009G14KT 33/18 A2989 RMK A01 T03290176  RH  042%=      5-min Rain = 0
KHA1 180125Z 15008KT 33/18 A2989 RMK A01 T03270177  RH  043%=      5-min Rain = 0
KHA1 180130Z 15009G14KT 33/18 A2989 RMK A01 T03260177  RH  043%=      5-min Rain = 0
KHA1 180135Z 15008KT 33/18 A2989 RMK A01 T03250176  RH  043%=      5-min Rain = 0
KHA1 180140Z 16009KT 33/18 A2989 RMK A01 T03250175  RH  043%=      5-min Rain = 0
KHA1 180145Z 16008G13KT 33/17 A2989 RMK A01 T03250174  RH  043%=      5-min Rain = 0
KHA1 180150Z 16007G13KT 32/17 A299 RMK A01 T03210174  RH  044%=      5-min Rain = 0
KHA1 180155Z 15006KT 32/18 A299 RMK A01 T03170175  RH  045%=      5-min Rain = 0
KHA1 180200Z 16007KT 32/17 A299 RMK A01 T03180174  RH  044%=      5-min Rain = 0
KHA1 180205Z 16007KT 32/17 A299 RMK A01 T03160174  RH  045%=      5-min Rain = 0
KHA1 180210Z 15007KT 32/18 A299 RMK A01 T03160175  RH  045%=      5-min Rain = 0
KHA1 180215Z 15006KT 32/18 A299 RMK A01 T03150175  RH  046%=      5-min Rain = 0
KHA1 180220Z 15005G10KT 31/18 A2991 RMK A01 T03120177  RH  047%=      5-min Rain = 0
KHA1 180225Z 15006KT 31/18 A2991 RMK A01 T03110178  RH  047%=      5-min Rain = 0
KHA1 180230Z 15006KT 31/18 A2991 RMK A01 T03100179  RH  048%=      5-min Rain = 0
KHA1 180235Z 15006KT 31/18 A2991 RMK A01 T03080179  RH  049%=      5-min Rain = 0
KHA1 180240Z 15006KT 31/18 A2991 RMK A01 T03080179  RH  049%=      5-min Rain = 0
KHA1 180245Z 15006KT 31/18 A2991 RMK A01 T03050180  RH  050%=      5-min Rain = 0
KHA1 180250Z 14005KT 31/18 A2991 RMK A01 T03050180  RH  050%=      5-min Rain = 0
KHA1 180255Z 14006KT 30/18 A2991 RMK A01 T03040180  RH  050%=      5-min Rain = 0
KHA1 180300Z 15007KT 30/18 A2991 RMK A01 T03030179  RH  050%=      5-min Rain = 0
KHA1 180305Z 15007KT 30/18 A2992 RMK A01 T03020180  RH  051%=      5-min Rain = 0
KHA1 180310Z 15008KT 30/18 A2992 RMK A01 T03010179  RH  051%=      5-min Rain = 0
KHA1 180315Z 15007KT 30/18 A2992 RMK A01 T03010179  RH  051%=      5-min Rain = 0
KHA1 180320Z 15007KT 30/18 A2992 RMK A01 T03000179  RH  051%=      5-min Rain = 0
KHA1 180325Z 15007KT 30/18 A2992 RMK A01 T02990180  RH  051%=      5-min Rain = 0
KHA1 180330Z 15008G13KT 30/18 A2992 RMK A01 T02990180  RH  052%=      5-min Rain = 0
KHA1 180335Z 15009KT 30/18 A2992 RMK A01 T02990180  RH  052%=      5-min Rain = 0
KHA1 180340Z 15008KT 30/18 A2992 RMK A01 T02980181  RH  052%=      5-min Rain = 0
KHA1 180345Z 16008KT 30/18 A2993 RMK A01 T02970181  RH  052%=      5-min Rain = 0
KHA1 180350Z 16008KT 30/18 A2993 RMK A01 T02970181  RH  052%=      5-min Rain = 0
KHA1 180355Z 16009KT 30/18 A2993 RMK A01 T02960181  RH  053%=      5-min Rain = 0
KHA1 180400Z 16008G13KT 30/18 A2993 RMK A01 T02950181  RH  053%=      5-min Rain = 0
KHA1 180405Z 16008KT 29/18 A2993 RMK A01 T02920181  RH  054%=      5-min Rain = 0
KHA1 180410Z 16008G13KT 29/18 A2993 RMK A01 T02900182  RH  055%=      5-min Rain = 0
KHA1 180415Z 16009KT 29/18 A2993 RMK A01 T02900182  RH  055%=      5-min Rain = 0
KHA1 180420Z 16008G13KT 29/18 A2994 RMK A01 T02890182  RH  055%=      5-min Rain = 0
KHA1 180425Z 16008KT 29/18 A2994 RMK A01 T02870182  RH  056%=      5-min Rain = 0
KHA1 180430Z 16009KT 29/18 A2994 RMK A01 T02880182  RH  056%=      5-min Rain = 0
KHA1 180435Z 16009KT 29/18 A2994 RMK A01 T02870182  RH  056%=      5-min Rain = 0
KHA1 180440Z 16010G15KT 29/18 A2994 RMK A01 T02870181  RH  056%=      5-min Rain = 0
KHA1 180445Z 16009KT 29/18 A2994 RMK A01 T02880181  RH  055%=      5-min Rain = 0
KHA1 180450Z 16008G13KT 29/18 A2994 RMK A01 T02880181  RH  055%=      5-min Rain = 0
KHA1 180455Z 16010G15KT 29/18 A2994 RMK A01 T02880180  RH  055%=      5-min Rain = 0

Page generated in 0.009 seconds.